Lawton, Michigan
Current Conditions -  °F | °C
As of 10:53 AM on Wednesday 26 Nov 2014 (Local Time) from KAZO Reporting Station
Overcast Overcast  
Wind Chill: 23°   Ceiling: 2100
Heat Index: 28°   Visibility: 10mi
Dew Point: 19°   Wind: 5mph
Humidity: 69%   Direction: 110°ESE
Pressure: 30.16"   Gusts: NA
Location:  42.17°N, 85.85°W
Report Text: KAZO 261553Z 11004KT 10SM OVC021 M02/M07 A3016 RMK AO2 SLP226 T10221072
Loading
Personal Weather Stations






























Interactive Weather Map New forecast layout! Learn more

10-Day Weather Forecast

Advertisements
Track Severe Weather on mobile